Time;durP1;ratioP1;P1;durP2;ratioP2;P2;SDS_P1;SDS_P2;PMS_P1;PMS_P2;Temp;Humidity;BMP_temperature;BMP_pressure;BME280_temperature;BME280_humidity;BME280_pressure;Samples;Min_cycle;Max_cycle;Signal;HPM_P1;HPM_P2
2021/03/02 00:01:36;;;;;;;;;;;;;;;;;;5008006;28;1926;-73
2021/03/02 00:04:04;;;;;;;;;;;;;;;;;;5004419;28;1631;-73
2021/03/02 00:06:29;;;;;;;;;;;;;;;;;;4999825;28;1547;-73
2021/03/02 00:08:55;;;;;;;;;;;;;;;;;;4988613;28;1443;-74
2021/03/02 00:11:21;;;;;;;;;;;;;;;;;;4987627;28;1056;-70
2021/03/02 00:13:47;;;;;;;;;;;;;;;;;;4988432;28;876;-73
2021/03/02 00:16:14;;;;;;;;;;;;;;;;;;4997348;28;1575;-72
2021/03/02 00:18:39;;;;;;;;;;;;;;;;;;5008037;28;1630;-72
2021/03/02 00:21:14;;;;;;;;;;;;;;;;;;5006423;28;1910;-73
2021/03/02 00:23:41;;;;;;;;;;;;;;;;;;5008115;28;891;-73
2021/03/02 00:26:08;;;;;;;;;;;;;;;;;;5003237;28;1477;-73
2021/03/02 00:28:33;;;;;;;;;;;;;;;;;;5025903;28;1554;-71
2021/03/02 00:30:59;;;;;;;;;;;;;;;;;;4985857;28;1392;-72
2021/03/02 00:33:25;;;;;;;;;;;;;;;;;;5023951;28;1368;-73
2021/03/02 00:35:51;;;;;;;;;;;;;;;;;;4997432;28;2342;-71
2021/03/02 00:38:16;;;;;;;;;;;;;;;;;;4993763;28;1524;-73
2021/03/02 00:40:42;;;;;;;;;;;;;;;;;;5002381;28;1968;-74
2021/03/02 00:43:07;;;;;;;;;;;;;;;;;;5008048;28;875;-72
2021/03/02 00:45:33;;;;;;;;;;;;;;;;;;4998940;28;1605;-73
2021/03/02 00:47:58;;;;;;;;;;;;;;;;;;4987889;28;808;-71
2021/03/02 00:50:25;;;;;;;;;;;;;;;;;;4986894;28;1438;-73
2021/03/02 00:52:50;;;;;;;;;;;;;;;;;;5029830;28;1530;-71
2021/03/02 00:55:16;;;;;;;;;;;;;;;;;;5012614;28;1410;-72
2021/03/02 00:57:41;;;;;;;;;;;;;;;;;;5004163;28;1455;-72
2021/03/02 01:00:07;;;;;;;;;;;;;;;;;;5008064;28;894;-74
2021/03/02 01:02:33;;;;;;;;;;;;;;;;;;5006458;28;1898;-72
2021/03/02 01:04:58;;;;;;;;;;;;;;;;;;5005025;28;1371;-72
2021/03/02 01:07:23;;;;;;;;;;;;;;;;;;5007783;28;1240;-73
2021/03/02 01:09:49;;;;;;;;;;;;;;;;;;5039173;28;1061;-73
2021/03/02 01:12:14;;;;;;;;;;;;;;;;;;5003472;28;2614;-72
2021/03/02 01:14:40;;;;;;;;;;;;;;;;;;4992619;28;819;-73
2021/03/02 01:17:06;;;;;;;;;;;;;;;;;;4988542;28;1549;-73
2021/03/02 01:19:32;;;;;;;;;;;;;;;;;;4988505;28;1583;-73
2021/03/02 01:21:57;;;;;;;;;;;;;;;;;;5005043;28;1959;-73
2021/03/02 01:24:23;;;;;;;;;;;;;;;;;;5006619;28;927;-74
2021/03/02 01:26:48;;;;;;;;;;;;;;;;;;5001276;28;1570;-73
2021/03/02 01:29:13;;;;;;;;;;;;;;;;;;5002234;28;1442;-74
2021/03/02 01:31:39;;;;;;;;;;;;;;;;;;5007122;28;859;-73
2021/03/02 01:34:04;;;;;;;;;;;;;;;;;;5006900;28;891;-73
2021/03/02 01:36:29;;;;;;;;;;;;;;;;;;5007576;28;980;-72
2021/03/02 01:38:55;;;;;;;;;;;;;;;;;;4992429;28;1618;-72
2021/03/02 01:41:20;;;;;;;;;;;;;;;;;;5004187;28;1886;-67
2021/03/02 01:43:46;;;;;;;;;;;;;;;;;;5005660;28;945;-68
2021/03/02 01:46:12;;;;;;;;;;;;;;;;;;5006692;28;951;-69
2021/03/02 01:48:38;;;;;;;;;;;;;;;;;;4994337;28;1460;-68
2021/03/02 01:51:03;;;;;;;;;;;;;;;;;;4997190;28;1462;-69
2021/03/02 01:53:29;;;;;;;;;;;;;;;;;;5011121;28;1369;-67
2021/03/02 01:55:55;;;;;;;;;;;;;;;;;;5001845;28;1473;-68
2021/03/02 01:58:20;;;;;;;;;;;;;;;;;;4985766;28;1491;-71
2021/03/02 02:00:46;;;;;;;;;;;;;;;;;;4989844;28;1992;-69
2021/03/02 02:03:17;;;;;;;;;;;;;;;;;;5002784;28;1567;-71
2021/03/02 02:05:45;;;;;;;;;;;;;;;;;;5003313;28;1536;-69
2021/03/02 02:08:12;;;;;;;;;;;;;;;;;;4997976;28;1449;-73
2021/03/02 02:10:40;;;;;;;;;;;;;;;;;;4990466;28;848;-69
2021/03/02 02:13:26;;;;;;;;;;;;;;;;;;4994765;28;1567;-71
2021/03/02 02:15:54;;;;;;;;;;;;;;;;;;5008749;28;1575;-68
2021/03/02 02:18:25;;;;;;;;;;;;;;;;;;4992650;28;1478;-70
2021/03/02 02:21:06;;;;;;;;;;;;;;;;;;4996925;28;1886;-70
2021/03/02 02:23:34;;;;;;;;;;;;;;;;;;4997449;28;1571;-69
2021/03/02 02:26:27;;;;;;;;;;;;;;;;;;5026774;28;1554;-70
2021/03/02 02:28:54;;;;;;;;;;;;;;;;;;5004919;28;1525;-72
2021/03/02 02:31:21;;;;;;;;;;;;;;;;;;5004024;28;1749;-68
2021/03/02 02:33:48;;;;;;;;;;;;;;;;;;4992963;28;1615;-70
2021/03/02 02:36:16;;;;;;;;;;;;;;;;;;5008964;28;858;-66
2021/03/02 02:38:50;;;;;;;;;;;;;;;;;;5009201;28;907;-69
2021/03/02 02:41:18;;;;;;;;;;;;;;;;;;5004381;28;1890;-70
2021/03/02 02:43:44;;;;;;;;;;;;;;;;;;5005414;28;1631;-67
2021/03/02 02:46:10;;;;;;;;;;;;;;;;;;5005908;28;1549;-69
2021/03/02 02:48:35;;;;;;;;;;;;;;;;;;5007642;28;1388;-69
2021/03/02 02:51:01;;;;;;;;;;;;;;;;;;5008761;28;854;-66
2021/03/02 02:53:28;;;;;;;;;;;;;;;;;;5011132;28;1406;-67
2021/03/02 02:55:57;;;;;;;;;;;;;;;;;;5029235;28;702;-67
2021/03/02 02:58:24;;;;;;;;;;;;;;;;;;5017802;28;1508;-66
2021/03/02 03:00:51;;;;;;;;;;;;;;;;;;5001101;28;1938;-66
2021/03/02 03:03:18;;;;;;;;;;;;;;;;;;5025129;28;1502;-67
2021/03/02 03:05:49;;;;;;;;;;;;;;;;;;5002725;28;1544;-67
2021/03/02 03:08:16;;;;;;;;;;;;;;;;;;5008920;28;939;-66
2021/03/02 03:10:43;;;;;;;;;;;;;;;;;;5007089;28;875;-68
2021/03/02 03:13:10;;;;;;;;;;;;;;;;;;5001139;28;1466;-65
2021/03/02 03:15:36;;;;;;;;;;;;;;;;;;4997179;28;1564;-69
2021/03/02 03:18:04;;;;;;;;;;;;;;;;;;4993094;28;1600;-69
2021/03/02 03:20:30;;;;;;;;;;;;;;;;;;4987620;28;1902;-72
2021/03/02 03:22:56;;;;;;;;;;;;;;;;;;4993818;28;1524;-69
2021/03/02 03:25:21;;;;;;;;;;;;;;;;;;5007795;28;828;-71
2021/03/02 03:27:51;;;;;;;;;;;;;;;;;;5002786;28;1451;-70
2021/03/02 03:30:18;;;;;;;;;;;;;;;;;;4996590;28;1497;-73
2021/03/02 03:32:45;;;;;;;;;;;;;;;;;;5001953;28;1448;-73
2021/03/02 03:35:11;;;;;;;;;;;;;;;;;;4989243;28;812;-72
2021/03/02 03:37:37;;;;;;;;;;;;;;;;;;5019509;28;1482;-72
2021/03/02 03:40:03;;;;;;;;;;;;;;;;;;5035146;28;1504;-73
2021/03/02 03:42:28;;;;;;;;;;;;;;;;;;5006616;28;1997;-69
2021/03/02 03:44:53;;;;;;;;;;;;;;;;;;5005170;28;1575;-73
2021/03/02 03:47:19;;;;;;;;;;;;;;;;;;5000932;28;1450;-71
2021/03/02 03:49:44;;;;;;;;;;;;;;;;;;4993791;28;1568;-71
2021/03/02 03:52:11;;;;;;;;;;;;;;;;;;5007557;28;1477;-73
2021/03/02 03:54:37;;;;;;;;;;;;;;;;;;5006957;28;1510;-72
2021/03/02 03:57:03;;;;;;;;;;;;;;;;;;5001922;28;1449;-71
2021/03/02 03:59:28;;;;;;;;;;;;;;;;;;4999741;28;1589;-69
2021/03/02 04:01:57;;;;;;;;;;;;;;;;;;5004157;28;1973;-68
2021/03/02 04:04:24;;;;;;;;;;;;;;;;;;5002400;28;1614;-71
2021/03/02 04:06:50;;;;;;;;;;;;;;;;;;5001395;28;1434;-71
2021/03/02 04:09:16;;;;;;;;;;;;;;;;;;4986952;28;1577;-69
2021/03/02 04:11:41;;;;;;;;;;;;;;;;;;4987813;28;841;-69
2021/03/02 04:14:08;;;;;;;;;;;;;;;;;;5001604;28;1626;-67
2021/03/02 04:16:33;;;;;;;;;;;;;;;;;;5005756;28;1809;-71
2021/03/02 04:18:59;;;;;;;;;;;;;;;;;;5005941;28;993;-68
2021/03/02 04:21:24;;;;;;;;;;;;;;;;;;5007041;28;1955;-72
2021/03/02 04:23:50;;;;;;;;;;;;;;;;;;5008014;28;942;-71
2021/03/02 04:26:15;;;;;;;;;;;;;;;;;;4999991;28;1610;-71
2021/03/02 04:28:40;;;;;;;;;;;;;;;;;;5009039;28;872;-73
2021/03/02 04:31:06;;;;;;;;;;;;;;;;;;4997032;28;1426;-69
2021/03/02 04:33:31;;;;;;;;;;;;;;;;;;4987895;28;870;-70
2021/03/02 04:35:56;;;;;;;;;;;;;;;;;;4987352;28;907;-73
2021/03/02 04:38:22;;;;;;;;;;;;;;;;;;4987626;28;1527;-74
2021/03/02 04:40:47;;;;;;;;;;;;;;;;;;5007147;28;1882;-68
2021/03/02 04:43:13;;;;;;;;;;;;;;;;;;5008898;28;836;-74
2021/03/02 04:45:38;;;;;;;;;;;;;;;;;;5008555;28;973;-73
2021/03/02 04:48:04;;;;;;;;;;;;;;;;;;4998440;28;1748;-72
2021/03/02 04:50:29;;;;;;;;;;;;;;;;;;4987927;28;941;-73
2021/03/02 04:52:54;;;;;;;;;;;;;;;;;;5003855;28;1653;-73
2021/03/02 04:55:20;;;;;;;;;;;;;;;;;;4987877;28;1620;-73
2021/03/02 04:57:46;;;;;;;;;;;;;;;;;;5002913;28;1787;-73
2021/03/02 05:00:12;;;;;;;;;;;;;;;;;;4989018;28;1412;-73
2021/03/02 05:02:37;;;;;;;;;;;;;;;;;;4989513;28;1910;-73
2021/03/02 05:05:03;;;;;;;;;;;;;;;;;;5003367;28;1502;-73
2021/03/02 05:07:29;;;;;;;;;;;;;;;;;;4988255;28;1684;-73
2021/03/02 05:09:54;;;;;;;;;;;;;;;;;;5006678;28;891;-72
2021/03/02 05:12:20;;;;;;;;;;;;;;;;;;5006371;28;819;-73
2021/03/02 05:14:45;;;;;;;;;;;;;;;;;;5007150;28;887;-73
2021/03/02 05:17:10;;;;;;;;;;;;;;;;;;5003114;28;1488;-73
2021/03/02 05:19:36;;;;;;;;;;;;;;;;;;4986887;28;1575;-72
2021/03/02 05:22:01;;;;;;;;;;;;;;;;;;5000337;28;2333;-72
2021/03/02 05:24:26;;;;;;;;;;;;;;;;;;4986003;28;911;-73
2021/03/02 05:26:52;;;;;;;;;;;;;;;;;;4986924;28;927;-71
2021/03/02 05:29:17;;;;;;;;;;;;;;;;;;4988613;28;1555;-73
2021/03/02 05:31:43;;;;;;;;;;;;;;;;;;4999915;28;1412;-74
2021/03/02 05:34:08;;;;;;;;;;;;;;;;;;5000734;28;1509;-73
2021/03/02 05:36:34;;;;;;;;;;;;;;;;;;4999322;28;1533;-72
2021/03/02 05:38:59;;;;;;;;;;;;;;;;;;5004818;28;816;-71
2021/03/02 05:41:25;;;;;;;;;;;;;;;;;;4986414;28;1914;-72
2021/03/02 05:43:50;;;;;;;;;;;;;;;;;;4989816;28;924;-73
2021/03/02 05:46:20;;;;;;;;;;;;;;;;;;4991175;28;899;-73
2021/03/02 05:48:46;;;;;;;;;;;;;;;;;;4992971;28;1455;-71
2021/03/02 05:51:12;;;;;;;;;;;;;;;;;;5011337;28;1448;-73
2021/03/02 05:53:38;;;;;;;;;;;;;;;;;;5009966;28;1527;-73
2021/03/02 05:56:05;;;;;;;;;;;;;;;;;;4990522;28;879;-71
2021/03/02 05:58:30;;;;;;;;;;;;;;;;;;4989798;28;1538;-69
2021/03/02 06:00:55;;;;;;;;;;;;;;;;;;4996752;28;1999;-69
2021/03/02 06:03:21;;;;;;;;;;;;;;;;;;5007878;28;1635;-70
2021/03/02 06:05:46;;;;;;;;;;;;;;;;;;5001106;28;1430;-72
2021/03/02 06:08:12;;;;;;;;;;;;;;;;;;4990527;28;856;-72
2021/03/02 06:10:37;;;;;;;;;;;;;;;;;;4990410;28;876;-70
2021/03/02 06:13:03;;;;;;;;;;;;;;;;;;4997268;28;1619;-73
2021/03/02 06:15:28;;;;;;;;;;;;;;;;;;4997011;28;1434;-72
2021/03/02 06:18:10;;;;;;;;;;;;;;;;;;5000739;28;1523;-73
2021/03/02 06:20:36;;;;;;;;;;;;;;;;;;5008817;28;1980;-69
2021/03/02 06:23:20;;;;;;;;;;;;;;;;;;5007816;28;1606;-69
2021/03/02 06:25:46;;;;;;;;;;;;;;;;;;5010238;28;1143;-73
2021/03/02 06:28:11;;;;;;;;;;;;;;;;;;5006271;28;1634;-70
2021/03/02 06:30:37;;;;;;;;;;;;;;;;;;5009167;28;870;-72
2021/03/02 06:33:02;;;;;;;;;;;;;;;;;;5004386;28;1408;-71
2021/03/02 06:35:29;;;;;;;;;;;;;;;;;;5002380;28;1081;-71
2021/03/02 06:37:54;;;;;;;;;;;;;;;;;;5006845;28;1227;-68
2021/03/02 06:40:34;;;;;;;;;;;;;;;;;;5004703;28;1420;-71
2021/03/02 06:43:00;;;;;;;;;;;;;;;;;;5005832;28;1642;-69
2021/03/02 06:45:25;;;;;;;;;;;;;;;;;;5006122;28;1093;-69
2021/03/02 06:48:00;;;;;;;;;;;;;;;;;;5005880;28;1441;-67
2021/03/02 06:50:25;;;;;;;;;;;;;;;;;;5008940;28;1207;-68
2021/03/02 06:52:51;;;;;;;;;;;;;;;;;;5009999;28;1176;-69
2021/03/02 06:55:16;;;;;;;;;;;;;;;;;;5000615;28;1573;-71
2021/03/02 06:57:42;;;;;;;;;;;;;;;;;;5008617;28;1453;-70
2021/03/02 07:00:08;;;;;;;;;;;;;;;;;;5007618;28;1262;-71
2021/03/02 07:02:34;;;;;;;;;;;;;;;;;;5014992;28;1919;-71
2021/03/02 07:05:08;;;;;;;;;;;;;;;;;;5006326;28;1557;-71
2021/03/02 07:07:34;;;;;;;;;;;;;;;;;;4992310;28;1646;-70
2021/03/02 07:10:01;;;;;;;;;;;;;;;;;;5009603;28;1411;-71
2021/03/02 07:12:32;;;;;;;;;;;;;;;;;;5006728;28;1203;-70
2021/03/02 07:15:01;;;;;;;;;;;;;;;;;;5005723;28;1365;-70
2021/03/02 07:17:27;;;;;;;;;;;;;;;;;;5003290;28;1416;-69
2021/03/02 07:19:52;;;;;;;;;;;;;;;;;;5005776;28;1667;-72
2021/03/02 07:22:19;;;;;;;;;;;;;;;;;;5007475;28;1902;-71
2021/03/02 07:24:45;;;;;;;;;;;;;;;;;;5006420;28;1326;-72
2021/03/02 07:27:12;;;;;;;;;;;;;;;;;;5005247;28;1445;-70
2021/03/02 07:29:38;;;;;;;;;;;;;;;;;;5006530;28;1551;-73
2021/03/02 07:32:04;;;;;;;;;;;;;;;;;;5002077;28;1587;-70
2021/03/02 07:34:30;;;;;;;;;;;;;;;;;;4990686;28;1622;-69
2021/03/02 07:36:55;;;;;;;;;;;;;;;;;;5004955;28;1525;-69
2021/03/02 07:39:24;;;;;;;;;;;;;;;;;;4986751;28;1465;-69
2021/03/02 07:41:51;;;;;;;;;;;;;;;;;;5034961;28;1958;-67
2021/03/02 07:44:17;;;;;;;;;;;;;;;;;;5003180;28;1485;-68
2021/03/02 07:46:44;;;;;;;;;;;;;;;;;;5006081;28;1453;-69
2021/03/02 07:49:24;;;;;;;;;;;;;;;;;;5002099;28;1439;-67
2021/03/02 07:51:56;;;;;;;;;;;;;;;;;;5000182;28;1512;-68
2021/03/02 07:54:21;;;;;;;;;;;;;;;;;;5010494;28;1494;-68
2021/03/02 07:56:47;;;;;;;;;;;;;;;;;;5007570;28;1536;-71
2021/03/02 07:59:12;;;;;;;;;;;;;;;;;;4993422;28;1594;-68
2021/03/02 08:01:37;;;;;;;;;;;;;;;;;;4998144;28;1967;-69
2021/03/02 08:04:15;;;;;;;;;;;;;;;;;;5000514;28;1608;-70
2021/03/02 08:06:41;;;;;;;;;;;;;;;;;;5004759;28;1357;-71
2021/03/02 08:09:27;;;;;;;;;;;;;;;;;;5004238;28;1598;-69
2021/03/02 08:11:54;;;;;;;;;;;;;;;;;;4998120;28;1571;-71
2021/03/02 08:14:23;;;;;;;;;;;;;;;;;;5002416;28;1510;-71
2021/03/02 08:17:05;;;;;;;;;;;;;;;;;;5004214;28;1301;-73
2021/03/02 08:19:37;;;;;;;;;;;;;;;;;;4988385;28;1466;-71
2021/03/02 08:22:18;;;;;;;;;;;;;;;;;;5003547;28;1964;-71
2021/03/02 08:24:54;;;;;;;;;;;;;;;;;;5005749;28;1299;-71
2021/03/02 08:27:39;;;;;;;;;;;;;;;;;;5005270;28;1414;-72
2021/03/02 08:30:06;;;;;;;;;;;;;;;;;;5004704;28;1087;-72
2021/03/02 08:32:31;;;;;;;;;;;;;;;;;;5006247;28;1215;-72
2021/03/02 08:35:02;;;;;;;;;;;;;;;;;;5003781;28;1428;-73
2021/03/02 08:37:40;;;;;;;;;;;;;;;;;;4996856;28;1434;-73
2021/03/02 08:40:06;;;;;;;;;;;;;;;;;;5005842;28;1561;-72
2021/03/02 08:42:32;;;;;;;;;;;;;;;;;;4996945;28;1890;-72
2021/03/02 08:45:10;;;;;;;;;;;;;;;;;;5002571;28;1505;-71
2021/03/02 08:47:36;;;;;;;;;;;;;;;;;;4996827;28;1633;-71
2021/03/02 08:50:03;;;;;;;;;;;;;;;;;;4998923;28;1523;-72
2021/03/02 08:52:41;;;;;;;;;;;;;;;;;;5000182;28;1543;-72
2021/03/02 08:55:07;;;;;;;;;;;;;;;;;;5001292;28;1536;-72
2021/03/02 08:57:45;;;;;;;;;;;;;;;;;;5001166;28;1482;-71
2021/03/02 09:00:16;;;;;;;;;;;;;;;;;;5005906;28;1283;-71
2021/03/02 09:02:45;;;;;;;;;;;;;;;;;;5004650;28;1909;-72
2021/03/02 09:05:14;;;;;;;;;;;;;;;;;;5004161;28;1411;-73
2021/03/02 09:07:39;;;;;;;;;;;;;;;;;;5000873;28;1508;-72
2021/03/02 09:10:15;;;;;;;;;;;;;;;;;;5003066;28;1254;-73
2021/03/02 09:12:47;;;;;;;;;;;;;;;;;;5000406;28;1014;-73
2021/03/02 09:15:13;;;;;;;;;;;;;;;;;;5007468;28;1069;-72
2021/03/02 09:17:39;;;;;;;;;;;;;;;;;;5001086;28;1538;-73
2021/03/02 09:20:05;;;;;;;;;;;;;;;;;;5000530;28;1550;-72
2021/03/02 09:22:31;;;;;;;;;;;;;;;;;;5002301;28;1894;-72
2021/03/02 09:24:57;;;;;;;;;;;;;;;;;;5004921;28;1219;-72
2021/03/02 09:27:29;;;;;;;;;;;;;;;;;;5006111;28;1156;-72
2021/03/02 09:29:55;;;;;;;;;;;;;;;;;;5010833;28;1152;-74
2021/03/02 09:32:31;;;;;;;;;;;;;;;;;;4952265;28;10988;-74
2021/03/02 09:34:56;;;;;;;;;;;;;;;;;;5003015;28;1448;-73
2021/03/02 09:37:22;;;;;;;;;;;;;;;;;;5003158;28;1442;-75
2021/03/02 09:39:56;;;;;;;;;;;;;;;;;;4998541;28;1591;-73
2021/03/02 09:42:26;;;;;;;;;;;;;;;;;;5001960;28;1975;-72
2021/03/02 09:44:52;;;;;;;;;;;;;;;;;;5005547;28;1377;-74
2021/03/02 09:47:28;;;;;;;;;;;;;;;;;;4997909;28;1504;-71
2021/03/02 09:49:56;;;;;;;;;;;;;;;;;;5002515;28;1164;-71
2021/03/02 09:52:34;;;;;;;;;;;;;;;;;;4999019;28;1449;-67
2021/03/02 09:55:23;;;;;;;;;;;;;;;;;;5002068;28;1581;-71
2021/03/02 09:57:57;;;;;;;;;;;;;;;;;;4998836;28;1503;-72
2021/03/02 10:00:26;;;;;;;;;;;;;;;;;;5003746;28;1615;-73
2021/03/02 10:02:52;;;;;;;;;;;;;;;;;;5033009;28;1976;-73
2021/03/02 10:05:47;;;;;;;;;;;;;;;;;;5003482;28;1421;-72
2021/03/02 10:08:18;;;;;;;;;;;;;;;;;;4988375;28;1595;-72
2021/03/02 10:10:47;;;;;;;;;;;;;;;;;;4998809;28;1419;-74
2021/03/02 10:13:20;;;;;;;;;;;;;;;;;;5003763;28;1630;-70
2021/03/02 10:15:46;;;;;;;;;;;;;;;;;;5005310;28;835;-72
2021/03/02 10:18:24;;;;;;;;;;;;;;;;;;5003319;28;1476;-72
2021/03/02 10:21:16;;;;;;;;;;;;;;;;;;4999000;28;1890;-72
2021/03/02 10:23:43;;;;;;;;;;;;;;;;;;5001244;28;1408;-73
2021/03/02 10:26:08;;;;;;;;;;;;;;;;;;5001192;28;1351;-72
2021/03/02 10:28:34;;;;;;;;;;;;;;;;;;4997719;28;1509;-72
2021/03/02 10:31:00;;;;;;;;;;;;;;;;;;5006271;28;1451;-72
2021/03/02 10:33:26;;;;;;;;;;;;;;;;;;5006336;28;1192;-71
2021/03/02 10:35:51;;;;;;;;;;;;;;;;;;4993456;28;1266;-72
2021/03/02 10:38:17;;;;;;;;;;;;;;;;;;4986741;28;1629;-73
2021/03/02 10:40:42;;;;;;;;;;;;;;;;;;5003238;28;1894;-72
2021/03/02 10:43:08;;;;;;;;;;;;;;;;;;4996628;28;1577;-72
2021/03/02 10:45:33;;;;;;;;;;;;;;;;;;5007934;28;1493;-72
2021/03/02 10:47:59;;;;;;;;;;;;;;;;;;4991620;28;1483;-72
2021/03/02 10:50:24;;;;;;;;;;;;;;;;;;5003283;28;1703;-73
2021/03/02 10:52:50;;;;;;;;;;;;;;;;;;4987677;28;1470;-72
2021/03/02 10:55:15;;;;;;;;;;;;;;;;;;5002167;28;1638;-73
2021/03/02 10:57:40;;;;;;;;;;;;;;;;;;4992341;28;1408;-72
2021/03/02 11:00:06;;;;;;;;;;;;;;;;;;4991546;28;1624;-73
2021/03/02 11:02:32;;;;;;;;;;;;;;;;;;4986944;28;1966;-73
2021/03/02 11:04:57;;;;;;;;;;;;;;;;;;4999824;28;1512;-72
2021/03/02 11:07:22;;;;;;;;;;;;;;;;;;5038455;28;1549;-73
2021/03/02 11:09:50;;;;;;;;;;;;;;;;;;5008572;28;951;-73
2021/03/02 11:12:16;;;;;;;;;;;;;;;;;;5009358;28;943;-72
2021/03/02 11:14:41;;;;;;;;;;;;;;;;;;5008460;28;1479;-72
2021/03/02 11:17:07;;;;;;;;;;;;;;;;;;5007044;28;1342;-73
2021/03/02 11:19:32;;;;;;;;;;;;;;;;;;4999408;28;1731;-73
2021/03/02 11:21:57;;;;;;;;;;;;;;;;;;4988236;28;1899;-73
2021/03/02 11:24:24;;;;;;;;;;;;;;;;;;5001259;28;1485;-71
2021/03/02 11:26:49;;;;;;;;;;;;;;;;;;4988850;28;1590;-73
2021/03/02 11:29:15;;;;;;;;;;;;;;;;;;4996324;28;1409;-74
2021/03/02 11:31:40;;;;;;;;;;;;;;;;;;5004137;28;1691;-74
2021/03/02 11:34:06;;;;;;;;;;;;;;;;;;5006399;28;1503;-73
2021/03/02 11:36:31;;;;;;;;;;;;;;;;;;5029331;28;1415;-74
2021/03/02 11:38:57;;;;;;;;;;;;;;;;;;5005426;28;1567;-74
2021/03/02 11:41:22;;;;;;;;;;;;;;;;;;5005726;28;1959;-73
2021/03/02 11:43:48;;;;;;;;;;;;;;;;;;5007746;28;919;-73
2021/03/02 11:46:13;;;;;;;;;;;;;;;;;;5001892;28;1794;-73
2021/03/02 11:48:39;;;;;;;;;;;;;;;;;;4998368;28;1579;-72
2021/03/02 11:51:04;;;;;;;;;;;;;;;;;;5002769;28;1423;-73
2021/03/02 11:53:30;;;;;;;;;;;;;;;;;;5014386;28;1083;-72
2021/03/02 11:55:55;;;;;;;;;;;;;;;;;;5023736;28;1101;-74
2021/03/02 11:58:20;;;;;;;;;;;;;;;;;;5016056;28;1386;-72
2021/03/02 12:00:46;;;;;;;;;;;;;;;;;;5002478;28;1922;-75
2021/03/02 12:03:11;;;;;;;;;;;;;;;;;;5003848;28;1619;-71
2021/03/02 12:05:37;;;;;;;;;;;;;;;;;;5004361;28;1580;-72
2021/03/02 12:08:03;;;;;;;;;;;;;;;;;;5001729;28;1536;-71
2021/03/02 12:10:29;;;;;;;;;;;;;;;;;;5004105;28;1426;-73
2021/03/02 12:12:54;;;;;;;;;;;;;;;;;;4999730;28;1571;-76
2021/03/02 12:15:20;;;;;;;;;;;;;;;;;;5002097;28;1434;-74
2021/03/02 12:17:45;;;;;;;;;;;;;;;;;;5004186;28;1430;-75
2021/03/02 12:20:11;;;;;;;;;;;;;;;;;;5001780;28;1551;-75
2021/03/02 12:22:37;;;;;;;;;;;;;;;;;;5005521;28;1894;-76
2021/03/02 12:25:03;;;;;;;;;;;;;;;;;;5002288;28;1486;-71
2021/03/02 12:27:28;;;;;;;;;;;;;;;;;;4997835;28;1682;-73
2021/03/02 12:29:54;;;;;;;;;;;;;;;;;;5004937;28;1515;-76
2021/03/02 12:32:19;;;;;;;;;;;;;;;;;;5032868;28;1501;-75
2021/03/02 12:34:45;;;;;;;;;;;;;;;;;;4997257;28;1539;-76
2021/03/02 12:37:10;;;;;;;;;;;;;;;;;;4987017;28;1678;-76
2021/03/02 12:39:35;;;;;;;;;;;;;;;;;;5021987;28;1459;-76
2021/03/02 12:42:01;;;;;;;;;;;;;;;;;;4999677;28;1969;-73
2021/03/02 12:44:26;;;;;;;;;;;;;;;;;;4999454;28;2363;-76
2021/03/02 12:46:51;;;;;;;;;;;;;;;;;;4996113;28;1450;-76
2021/03/02 12:49:17;;;;;;;;;;;;;;;;;;4995043;28;1470;-76
2021/03/02 12:51:42;;;;;;;;;;;;;;;;;;5004255;28;1478;-75
2021/03/02 12:54:08;;;;;;;;;;;;;;;;;;5001291;28;1546;-73
2021/03/02 12:56:34;;;;;;;;;;;;;;;;;;5005158;28;1415;-73
2021/03/02 12:58:59;;;;;;;;;;;;;;;;;;4996568;28;1493;-75
2021/03/02 13:01:25;;;;;;;;;;;;;;;;;;5004917;28;1906;-75
2021/03/02 13:03:53;;;;;;;;;;;;;;;;;;5002543;28;1498;-75
2021/03/02 13:06:18;;;;;;;;;;;;;;;;;;4996895;28;1540;-76
2021/03/02 13:08:46;;;;;;;;;;;;;;;;;;4999350;28;1022;-73
2021/03/02 13:11:12;;;;;;;;;;;;;;;;;;5006540;28;1149;-74
2021/03/02 13:13:38;;;;;;;;;;;;;;;;;;5005319;28;1590;-75
2021/03/02 13:16:05;;;;;;;;;;;;;;;;;;4999121;28;1554;-75
2021/03/02 13:18:31;;;;;;;;;;;;;;;;;;5001788;28;1442;-73
2021/03/02 13:20:57;;;;;;;;;;;;;;;;;;5002145;28;1998;-75
2021/03/02 13:23:23;;;;;;;;;;;;;;;;;;5002567;28;1444;-74
2021/03/02 13:25:48;;;;;;;;;;;;;;;;;;4986581;28;1458;-73
2021/03/02 13:28:14;;;;;;;;;;;;;;;;;;4994719;28;1560;-75
2021/03/02 13:30:41;;;;;;;;;;;;;;;;;;5005099;28;1508;-75
2021/03/02 13:33:14;;;;;;;;;;;;;;;;;;4985949;28;1600;-73
2021/03/02 13:35:40;;;;;;;;;;;;;;;;;;4988496;28;1426;-72
2021/03/02 13:38:07;;;;;;;;;;;;;;;;;;5007371;28;867;-73
2021/03/02 13:40:32;;;;;;;;;;;;;;;;;;5006055;28;911;-71
2021/03/02 13:42:59;;;;;;;;;;;;;;;;;;4997161;28;1890;-71
2021/03/02 13:45:26;;;;;;;;;;;;;;;;;;5001892;28;1440;-70
2021/03/02 13:47:52;;;;;;;;;;;;;;;;;;4998618;28;1394;-70
2021/03/02 13:50:18;;;;;;;;;;;;;;;;;;4989201;28;1675;-71
2021/03/02 13:52:44;;;;;;;;;;;;;;;;;;5007387;28;1594;-70
2021/03/02 13:55:10;;;;;;;;;;;;;;;;;;5012237;28;1685;-71
2021/03/02 13:57:36;;;;;;;;;;;;;;;;;;4985569;28;1479;-70
2021/03/02 14:00:04;;;;;;;;;;;;;;;;;;4991439;28;1400;-71
2021/03/02 14:02:30;;;;;;;;;;;;;;;;;;5005912;28;1905;-70
2021/03/02 14:04:56;;;;;;;;;;;;;;;;;;4997627;28;1582;-71
2021/03/02 14:07:21;;;;;;;;;;;;;;;;;;5004149;28;1524;-71
2021/03/02 14:09:47;;;;;;;;;;;;;;;;;;5008314;28;1473;-71
2021/03/02 14:12:13;;;;;;;;;;;;;;;;;;5007845;28;1527;-70
2021/03/02 14:14:39;;;;;;;;;;;;;;;;;;5003066;28;1422;-70
2021/03/02 14:17:05;;;;;;;;;;;;;;;;;;4998992;28;1602;-70
2021/03/02 14:19:31;;;;;;;;;;;;;;;;;;5008175;28;1561;-70
2021/03/02 14:21:56;;;;;;;;;;;;;;;;;;4992494;28;1902;-71
2021/03/02 14:24:23;;;;;;;;;;;;;;;;;;5004546;28;1642;-71
2021/03/02 14:26:49;;;;;;;;;;;;;;;;;;5002722;28;1627;-71
2021/03/02 14:29:15;;;;;;;;;;;;;;;;;;4996201;28;1470;-70
2021/03/02 14:31:41;;;;;;;;;;;;;;;;;;4993829;28;1426;-71
2021/03/02 14:34:06;;;;;;;;;;;;;;;;;;4998963;28;1405;-70
2021/03/02 14:36:32;;;;;;;;;;;;;;;;;;4989841;28;824;-70
2021/03/02 14:38:57;;;;;;;;;;;;;;;;;;5006528;28;1496;-70
2021/03/02 14:41:27;;;;;;;;;;;;;;;;;;5007951;28;1902;-70
2021/03/02 14:43:53;;;;;;;;;;;;;;;;;;5008556;28;906;-71
2021/03/02 14:46:23;;;;;;;;;;;;;;;;;;5003313;28;1447;-71
2021/03/02 14:48:50;;;;;;;;;;;;;;;;;;4988875;28;1606;-71
2021/03/02 14:51:19;;;;;;;;;;;;;;;;;;4989987;28;855;-70
2021/03/02 14:53:44;;;;;;;;;;;;;;;;;;5004504;28;1389;-70
2021/03/02 14:56:17;;;;;;;;;;;;;;;;;;5005447;28;1489;-70
2021/03/02 14:58:45;;;;;;;;;;;;;;;;;;5002418;28;1363;-74
2021/03/02 15:01:10;;;;;;;;;;;;;;;;;;5035482;28;1926;-69
2021/03/02 15:03:36;;;;;;;;;;;;;;;;;;5005240;28;1512;-70
2021/03/02 15:06:01;;;;;;;;;;;;;;;;;;5005439;28;1359;-72
2021/03/02 15:08:27;;;;;;;;;;;;;;;;;;5006094;28;1548;-70
2021/03/02 15:10:53;;;;;;;;;;;;;;;;;;5011139;28;1681;-70
2021/03/02 15:13:19;;;;;;;;;;;;;;;;;;4963754;28;10691;-68
2021/03/02 15:15:46;;;;;;;;;;;;;;;;;;5003771;28;1555;-68
2021/03/02 15:18:12;;;;;;;;;;;;;;;;;;4992315;28;1372;-68
2021/03/02 15:20:37;;;;;;;;;;;;;;;;;;5006905;28;1436;-71
2021/03/02 15:23:06;;;;;;;;;;;;;;;;;;5002241;28;1950;-70
2021/03/02 15:25:31;;;;;;;;;;;;;;;;;;5006794;28;1610;-71
2021/03/02 15:27:57;;;;;;;;;;;;;;;;;;5010923;28;1473;-71
2021/03/02 15:30:23;;;;;;;;;;;;;;;;;;4989138;28;1121;-72
2021/03/02 15:32:50;;;;;;;;;;;;;;;;;;5005653;28;1481;-71
2021/03/02 15:35:16;;;;;;;;;;;;;;;;;;5007780;28;1349;-70
2021/03/02 15:37:45;;;;;;;;;;;;;;;;;;5002986;28;1402;-68
2021/03/02 15:40:11;;;;;;;;;;;;;;;;;;4987490;28;914;-71
2021/03/02 15:42:38;;;;;;;;;;;;;;;;;;4993041;28;2093;-71
2021/03/02 15:45:03;;;;;;;;;;;;;;;;;;5008391;28;1490;-72
2021/03/02 15:47:29;;;;;;;;;;;;;;;;;;4994610;28;1415;-75
2021/03/02 15:49:56;;;;;;;;;;;;;;;;;;5021350;28;1661;-74
2021/03/02 15:52:21;;;;;;;;;;;;;;;;;;5006822;28;1586;-73
2021/03/02 15:54:48;;;;;;;;;;;;;;;;;;4989097;28;1490;-73
2021/03/02 15:57:13;;;;;;;;;;;;;;;;;;5004886;28;1449;-73
2021/03/02 15:59:38;;;;;;;;;;;;;;;;;;5012877;28;1571;-73
2021/03/02 16:02:09;;;;;;;;;;;;;;;;;;4998291;28;1902;-74
2021/03/02 16:04:35;;;;;;;;;;;;;;;;;;5003933;28;1543;-73
2021/03/02 16:07:07;;;;;;;;;;;;;;;;;;5006772;28;858;-74
2021/03/02 16:09:35;;;;;;;;;;;;;;;;;;5007059;28;863;-74
2021/03/02 16:12:01;;;;;;;;;;;;;;;;;;5008058;28;913;-73
2021/03/02 16:14:29;;;;;;;;;;;;;;;;;;5000991;28;1490;-74
2021/03/02 16:16:55;;;;;;;;;;;;;;;;;;4991639;28;1572;-74
2021/03/02 16:19:22;;;;;;;;;;;;;;;;;;5009183;28;1419;-74
2021/03/02 16:21:49;;;;;;;;;;;;;;;;;;4988443;28;1906;-74
2021/03/02 16:24:16;;;;;;;;;;;;;;;;;;5003155;28;10735;-74
2021/03/02 16:26:42;;;;;;;;;;;;;;;;;;5003039;28;1582;-73
2021/03/02 16:29:11;;;;;;;;;;;;;;;;;;5000351;28;1622;-73
2021/03/02 16:31:36;;;;;;;;;;;;;;;;;;4993532;28;1403;-71
2021/03/02 16:34:02;;;;;;;;;;;;;;;;;;4983778;28;10613;-73
2021/03/02 16:36:28;;;;;;;;;;;;;;;;;;5004755;28;1446;-72
2021/03/02 16:38:56;;;;;;;;;;;;;;;;;;5004628;28;1497;-69
2021/03/02 16:41:21;;;;;;;;;;;;;;;;;;4990358;28;1910;-70
2021/03/02 16:43:47;;;;;;;;;;;;;;;;;;5000067;28;1382;-70
2021/03/02 16:46:12;;;;;;;;;;;;;;;;;;5001172;28;1633;-68
2021/03/02 16:48:37;;;;;;;;;;;;;;;;;;5000587;28;1450;-72
2021/03/02 16:51:03;;;;;;;;;;;;;;;;;;5004255;28;1383;-72
2021/03/02 16:53:30;;;;;;;;;;;;;;;;;;5003572;28;1504;-69
2021/03/02 16:56:03;;;;;;;;;;;;;;;;;;5002629;28;1567;-75
2021/03/02 16:58:49;;;;;;;;;;;;;;;;;;5013130;28;1532;-67
2021/03/02 17:01:26;;;;;;;;;;;;;;;;;;5001939;28;1995;-69
2021/03/02 17:03:53;;;;;;;;;;;;;;;;;;5002799;28;1369;-68
2021/03/02 17:06:23;;;;;;;;;;;;;;;;;;5001955;28;1547;-69